sensor_id;sensor_type;location;lat;lon;timestamp;P1;durP1;ratioP1;P2;durP2;ratioP2
21000;SDS011;10658;50.920;12.238;2022-07-23T00:01:57;6.28;;;4.80;;
21000;SDS011;10658;50.920;12.238;2022-07-23T00:05:58;7.28;;;5.40;;
21000;SDS011;10658;50.920;12.238;2022-07-23T00:10:00;6.82;;;5.43;;
21000;SDS011;10658;50.920;12.238;2022-07-23T00:14:02;8.65;;;5.40;;
21000;SDS011;10658;50.920;12.238;2022-07-23T00:18:04;7.15;;;5.88;;
21000;SDS011;10658;50.920;12.238;2022-07-23T00:22:06;6.90;;;5.30;;
21000;SDS011;10658;50.920;12.238;2022-07-23T00:26:06;7.22;;;5.28;;
21000;SDS011;10658;50.920;12.238;2022-07-23T00:30:08;6.40;;;4.75;;
21000;SDS011;10658;50.920;12.238;2022-07-23T00:34:11;5.07;;;4.55;;
21000;SDS011;10658;50.920;12.238;2022-07-23T00:38:12;6.47;;;5.35;;
21000;SDS011;10658;50.920;12.238;2022-07-23T00:42:15;5.50;;;5.00;;
21000;SDS011;10658;50.920;12.238;2022-07-23T00:46:20;6.07;;;5.03;;
21000;SDS011;10658;50.920;12.238;2022-07-23T00:50:25;8.68;;;5.25;;
21000;SDS011;10658;50.920;12.238;2022-07-23T00:54:28;5.70;;;4.57;;
21000;SDS011;10658;50.920;12.238;2022-07-23T00:58:30;6.18;;;4.80;;
21000;SDS011;10658;50.920;12.238;2022-07-23T01:02:33;6.45;;;4.68;;
21000;SDS011;10658;50.920;12.238;2022-07-23T01:06:35;6.18;;;5.50;;
21000;SDS011;10658;50.920;12.238;2022-07-23T01:10:37;6.15;;;5.00;;
21000;SDS011;10658;50.920;12.238;2022-07-23T01:14:38;8.65;;;4.90;;
21000;SDS011;10658;50.920;12.238;2022-07-23T01:18:40;10.43;;;5.75;;
21000;SDS011;10658;50.920;12.238;2022-07-23T01:22:43;6.88;;;5.65;;
21000;SDS011;10658;50.920;12.238;2022-07-23T01:26:46;7.28;;;5.38;;
21000;SDS011;10658;50.920;12.238;2022-07-23T01:30:48;7.40;;;6.00;;
21000;SDS011;10658;50.920;12.238;2022-07-23T01:34:49;8.65;;;5.57;;
21000;SDS011;10658;50.920;12.238;2022-07-23T01:38:51;6.07;;;5.22;;
21000;SDS011;10658;50.920;12.238;2022-07-23T01:42:53;6.50;;;5.60;;
21000;SDS011;10658;50.920;12.238;2022-07-23T01:46:55;8.32;;;5.97;;
21000;SDS011;10658;50.920;12.238;2022-07-23T01:50:57;9.45;;;5.80;;
21000;SDS011;10658;50.920;12.238;2022-07-23T01:55:10;6.88;;;5.30;;
21000;SDS011;10658;50.920;12.238;2022-07-23T01:59:15;8.50;;;4.90;;
21000;SDS011;10658;50.920;12.238;2022-07-23T02:03:16;8.52;;;5.72;;
21000;SDS011;10658;50.920;12.238;2022-07-23T02:07:17;5.88;;;4.95;;
21000;SDS011;10658;50.920;12.238;2022-07-23T02:11:18;6.05;;;4.95;;
21000;SDS011;10658;50.920;12.238;2022-07-23T02:15:19;11.40;;;5.20;;
21000;SDS011;10658;50.920;12.238;2022-07-23T02:19:22;6.55;;;5.25;;
21000;SDS011;10658;50.920;12.238;2022-07-23T02:23:23;6.45;;;5.72;;
21000;SDS011;10658;50.920;12.238;2022-07-23T02:27:27;10.70;;;5.90;;
21000;SDS011;10658;50.920;12.238;2022-07-23T02:31:29;7.40;;;5.80;;
21000;SDS011;10658;50.920;12.238;2022-07-23T02:35:31;8.68;;;5.60;;
21000;SDS011;10658;50.920;12.238;2022-07-23T02:39:36;9.02;;;6.05;;
21000;SDS011;10658;50.920;12.238;2022-07-23T02:43:38;6.10;;;5.00;;
21000;SDS011;10658;50.920;12.238;2022-07-23T02:47:40;6.97;;;5.38;;
21000;SDS011;10658;50.920;12.238;2022-07-23T02:51:41;7.65;;;5.97;;
21000;SDS011;10658;50.920;12.238;2022-07-23T02:55:42;8.52;;;5.55;;
21000;SDS011;10658;50.920;12.238;2022-07-23T02:59:44;10.45;;;5.78;;
21000;SDS011;10658;50.920;12.238;2022-07-23T03:03:45;9.80;;;6.05;;
21000;SDS011;10658;50.920;12.238;2022-07-23T03:07:46;9.07;;;5.82;;
21000;SDS011;10658;50.920;12.238;2022-07-23T03:11:47;8.55;;;6.13;;
21000;SDS011;10658;50.920;12.238;2022-07-23T03:15:49;10.38;;;5.40;;
21000;SDS011;10658;50.920;12.238;2022-07-23T03:19:50;9.15;;;6.13;;
21000;SDS011;10658;50.920;12.238;2022-07-23T03:23:52;8.20;;;6.40;;
21000;SDS011;10658;50.920;12.238;2022-07-23T03:27:54;7.90;;;6.10;;
21000;SDS011;10658;50.920;12.238;2022-07-23T03:31:56;7.78;;;6.32;;
21000;SDS011;10658;50.920;12.238;2022-07-23T03:35:57;10.25;;;7.07;;
21000;SDS011;10658;50.920;12.238;2022-07-23T03:40:02;11.25;;;6.13;;
21000;SDS011;10658;50.920;12.238;2022-07-23T03:44:04;11.15;;;7.35;;
21000;SDS011;10658;50.920;12.238;2022-07-23T03:48:05;8.85;;;6.38;;
21000;SDS011;10658;50.920;12.238;2022-07-23T03:52:07;8.80;;;6.72;;
21000;SDS011;10658;50.920;12.238;2022-07-23T03:56:08;11.32;;;7.28;;
21000;SDS011;10658;50.920;12.238;2022-07-23T04:00:10;8.75;;;6.57;;
21000;SDS011;10658;50.920;12.238;2022-07-23T04:04:17;8.60;;;6.65;;
21000;SDS011;10658;50.920;12.238;2022-07-23T04:08:19;11.05;;;7.32;;
21000;SDS011;10658;50.920;12.238;2022-07-23T04:12:24;10.52;;;7.05;;
21000;SDS011;10658;50.920;12.238;2022-07-23T04:16:27;12.68;;;7.45;;
21000;SDS011;10658;50.920;12.238;2022-07-23T04:20:29;10.32;;;7.13;;
21000;SDS011;10658;50.920;12.238;2022-07-23T04:24:34;8.55;;;6.95;;
21000;SDS011;10658;50.920;12.238;2022-07-23T04:28:35;11.00;;;7.35;;
21000;SDS011;10658;50.920;12.238;2022-07-23T04:32:40;10.05;;;7.18;;
21000;SDS011;10658;50.920;12.238;2022-07-23T04:36:50;13.55;;;7.55;;
21000;SDS011;10658;50.920;12.238;2022-07-23T04:40:52;10.55;;;7.28;;
21000;SDS011;10658;50.920;12.238;2022-07-23T04:44:54;11.45;;;7.13;;
21000;SDS011;10658;50.920;12.238;2022-07-23T04:48:55;11.43;;;6.70;;
21000;SDS011;10658;50.920;12.238;2022-07-23T04:52:57;10.25;;;6.72;;
21000;SDS011;10658;50.920;12.238;2022-07-23T04:56:58;9.85;;;6.78;;
21000;SDS011;10658;50.920;12.238;2022-07-23T05:01:00;10.93;;;7.35;;
21000;SDS011;10658;50.920;12.238;2022-07-23T05:05:04;12.70;;;6.57;;
21000;SDS011;10658;50.920;12.238;2022-07-23T05:09:05;11.43;;;6.40;;
21000;SDS011;10658;50.920;12.238;2022-07-23T05:13:07;11.05;;;6.20;;
21000;SDS011;10658;50.920;12.238;2022-07-23T05:17:08;9.73;;;5.95;;
21000;SDS011;10658;50.920;12.238;2022-07-23T05:21:09;8.98;;;5.38;;
21000;SDS011;10658;50.920;12.238;2022-07-23T05:25:10;6.43;;;5.53;;
21000;SDS011;10658;50.920;12.238;2022-07-23T05:29:12;8.93;;;6.15;;
21000;SDS011;10658;50.920;12.238;2022-07-23T05:33:13;14.40;;;5.72;;
21000;SDS011;10658;50.920;12.238;2022-07-23T05:37:15;6.32;;;5.22;;
21000;SDS011;10658;50.920;12.238;2022-07-23T05:41:17;6.07;;;5.20;;
21000;SDS011;10658;50.920;12.238;2022-07-23T05:45:19;8.80;;;5.80;;
21000;SDS011;10658;50.920;12.238;2022-07-23T05:49:20;7.65;;;5.38;;
21000;SDS011;10658;50.920;12.238;2022-07-23T05:53:34;5.50;;;4.93;;
21000;SDS011;10658;50.920;12.238;2022-07-23T05:57:56;8.52;;;4.97;;
21000;SDS011;10658;50.920;12.238;2022-07-23T06:01:57;7.85;;;5.28;;
21000;SDS011;10658;50.920;12.238;2022-07-23T06:05:59;14.15;;;5.35;;
21000;SDS011;10658;50.920;12.238;2022-07-23T06:10:00;8.38;;;5.38;;
21000;SDS011;10658;50.920;12.238;2022-07-23T06:14:03;10.88;;;5.47;;
21000;SDS011;10658;50.920;12.238;2022-07-23T06:18:18;8.88;;;5.63;;
21000;SDS011;10658;50.920;12.238;2022-07-23T06:22:20;11.52;;;5.13;;
21000;SDS011;10658;50.920;12.238;2022-07-23T06:26:22;9.05;;;5.75;;
21000;SDS011;10658;50.920;12.238;2022-07-23T06:30:24;7.13;;;5.22;;
21000;SDS011;10658;50.920;12.238;2022-07-23T06:34:25;9.05;;;5.97;;
21000;SDS011;10658;50.920;12.238;2022-07-23T06:38:29;7.47;;;5.70;;
21000;SDS011;10658;50.920;12.238;2022-07-23T06:42:30;8.00;;;5.95;;
21000;SDS011;10658;50.920;12.238;2022-07-23T06:46:33;7.38;;;5.13;;
21000;SDS011;10658;50.920;12.238;2022-07-23T06:50:35;10.95;;;5.97;;
21000;SDS011;10658;50.920;12.238;2022-07-23T06:54:35;10.63;;;5.25;;
21000;SDS011;10658;50.920;12.238;2022-07-23T06:58:37;6.65;;;5.03;;
21000;SDS011;10658;50.920;12.238;2022-07-23T07:02:40;10.13;;;4.82;;
21000;SDS011;10658;50.920;12.238;2022-07-23T07:06:41;9.32;;;5.25;;
21000;SDS011;10658;50.920;12.238;2022-07-23T07:10:42;8.20;;;5.15;;
21000;SDS011;10658;50.920;12.238;2022-07-23T07:14:43;10.38;;;6.18;;
21000;SDS011;10658;50.920;12.238;2022-07-23T07:18:44;7.82;;;5.57;;
21000;SDS011;10658;50.920;12.238;2022-07-23T07:22:46;7.93;;;5.20;;
21000;SDS011;10658;50.920;12.238;2022-07-23T07:26:47;9.15;;;5.55;;
21000;SDS011;10658;50.920;12.238;2022-07-23T07:30:49;11.82;;;5.25;;
21000;SDS011;10658;50.920;12.238;2022-07-23T07:34:50;7.75;;;5.45;;
21000;SDS011;10658;50.920;12.238;2022-07-23T07:38:51;7.85;;;5.22;;
21000;SDS011;10658;50.920;12.238;2022-07-23T07:42:53;7.22;;;5.32;;
21000;SDS011;10658;50.920;12.238;2022-07-23T07:46:56;8.80;;;5.13;;
21000;SDS011;10658;50.920;12.238;2022-07-23T07:50:58;10.07;;;5.38;;
21000;SDS011;10658;50.920;12.238;2022-07-23T07:54:59;10.55;;;5.25;;
21000;SDS011;10658;50.920;12.238;2022-07-23T07:59:00;6.22;;;4.93;;
21000;SDS011;10658;50.920;12.238;2022-07-23T08:03:02;7.43;;;5.43;;
21000;SDS011;10658;50.920;12.238;2022-07-23T08:07:03;6.28;;;5.25;;
21000;SDS011;10658;50.920;12.238;2022-07-23T08:11:05;10.20;;;6.22;;
21000;SDS011;10658;50.920;12.238;2022-07-23T08:15:07;7.85;;;5.65;;
21000;SDS011;10658;50.920;12.238;2022-07-23T08:19:10;7.72;;;5.72;;
21000;SDS011;10658;50.920;12.238;2022-07-23T08:23:11;8.95;;;5.90;;
21000;SDS011;10658;50.920;12.238;2022-07-23T08:27:16;11.73;;;5.90;;
21000;SDS011;10658;50.920;12.238;2022-07-23T08:31:17;8.20;;;6.13;;
21000;SDS011;10658;50.920;12.238;2022-07-23T08:35:29;8.15;;;5.55;;
21000;SDS011;10658;50.920;12.238;2022-07-23T08:39:33;9.57;;;5.60;;
21000;SDS011;10658;50.920;12.238;2022-07-23T08:43:35;8.23;;;5.55;;
21000;SDS011;10658;50.920;12.238;2022-07-23T08:47:39;7.38;;;5.55;;
21000;SDS011;10658;50.920;12.238;2022-07-23T08:51:41;7.80;;;5.18;;
21000;SDS011;10658;50.920;12.238;2022-07-23T08:55:52;8.57;;;5.25;;
21000;SDS011;10658;50.920;12.238;2022-07-23T08:59:55;7.07;;;4.88;;
21000;SDS011;10658;50.920;12.238;2022-07-23T09:03:57;9.77;;;5.35;;
21000;SDS011;10658;50.920;12.238;2022-07-23T09:08:08;8.50;;;5.60;;
21000;SDS011;10658;50.920;12.238;2022-07-23T09:12:12;8.25;;;5.90;;
21000;SDS011;10658;50.920;12.238;2022-07-23T09:16:20;8.10;;;5.25;;
21000;SDS011;10658;50.920;12.238;2022-07-23T09:20:25;7.35;;;5.22;;
21000;SDS011;10658;50.920;12.238;2022-07-23T09:24:26;7.28;;;5.68;;
21000;SDS011;10658;50.920;12.238;2022-07-23T09:28:27;5.57;;;4.80;;
21000;SDS011;10658;50.920;12.238;2022-07-23T09:32:29;7.18;;;6.28;;
21000;SDS011;10658;50.920;12.238;2022-07-23T09:36:30;8.38;;;6.05;;
21000;SDS011;10658;50.920;12.238;2022-07-23T09:40:31;6.82;;;6.03;;
21000;SDS011;10658;50.920;12.238;2022-07-23T09:44:55;10.82;;;6.35;;
21000;SDS011;10658;50.920;12.238;2022-07-23T09:48:59;9.98;;;6.47;;
21000;SDS011;10658;50.920;12.238;2022-07-23T09:53:24;12.68;;;6.68;;
21000;SDS011;10658;50.920;12.238;2022-07-23T09:57:26;10.18;;;7.63;;
21000;SDS011;10658;50.920;12.238;2022-07-23T10:01:31;13.50;;;8.73;;
21000;SDS011;10658;50.920;12.238;2022-07-23T10:05:33;10.00;;;8.52;;
21000;SDS011;10658;50.920;12.238;2022-07-23T10:09:45;10.55;;;8.25;;
21000;SDS011;10658;50.920;12.238;2022-07-23T10:14:29;11.77;;;9.02;;
21000;SDS011;10658;50.920;12.238;2022-07-23T10:23:02;15.13;;;10.23;;
21000;SDS011;10658;50.920;12.238;2022-07-23T10:36:18;14.48;;;10.68;;
21000;SDS011;10658;50.920;12.238;2022-07-23T10:40:22;13.93;;;11.15;;
21000;SDS011;10658;50.920;12.238;2022-07-23T10:44:23;19.05;;;13.15;;
21000;SDS011;10658;50.920;12.238;2022-07-23T10:48:37;21.73;;;15.00;;
21000;SDS011;10658;50.920;12.238;2022-07-23T10:52:38;22.27;;;15.52;;
21000;SDS011;10658;50.920;12.238;2022-07-23T11:00:56;24.55;;;19.27;;
21000;SDS011;10658;50.920;12.238;2022-07-23T11:21:51;22.60;;;17.08;;
21000;SDS011;10658;50.920;12.238;2022-07-23T11:25:53;19.45;;;16.42;;
21000;SDS011;10658;50.920;12.238;2022-07-23T11:29:54;21.23;;;16.25;;
21000;SDS011;10658;50.920;12.238;2022-07-23T11:38:34;16.85;;;13.30;;
21000;SDS011;10658;50.920;12.238;2022-07-23T11:47:03;13.88;;;11.70;;
21000;SDS011;10658;50.920;12.238;2022-07-23T11:51:06;14.32;;;11.82;;
21000;SDS011;10658;50.920;12.238;2022-07-23T11:55:09;15.88;;;13.70;;
21000;SDS011;10658;50.920;12.238;2022-07-23T11:59:12;14.43;;;12.82;;
21000;SDS011;10658;50.920;12.238;2022-07-23T12:03:47;15.43;;;12.35;;
21000;SDS011;10658;50.920;12.238;2022-07-23T12:08:11;18.13;;;12.77;;
21000;SDS011;10658;50.920;12.238;2022-07-23T12:12:13;12.43;;;11.13;;
21000;SDS011;10658;50.920;12.238;2022-07-23T12:16:14;11.38;;;10.13;;
21000;SDS011;10658;50.920;12.238;2022-07-23T12:20:18;12.13;;;10.13;;
21000;SDS011;10658;50.920;12.238;2022-07-23T12:24:25;11.75;;;10.48;;
21000;SDS011;10658;50.920;12.238;2022-07-23T12:28:28;12.30;;;11.00;;
21000;SDS011;10658;50.920;12.238;2022-07-23T12:32:29;10.48;;;8.77;;
21000;SDS011;10658;50.920;12.238;2022-07-23T12:36:37;12.75;;;10.63;;
21000;SDS011;10658;50.920;12.238;2022-07-23T12:45:07;11.82;;;10.00;;
21000;SDS011;10658;50.920;12.238;2022-07-23T12:49:11;10.32;;;9.32;;
21000;SDS011;10658;50.920;12.238;2022-07-23T12:53:39;11.05;;;9.95;;
21000;SDS011;10658;50.920;12.238;2022-07-23T12:57:48;13.88;;;9.95;;
21000;SDS011;10658;50.920;12.238;2022-07-23T13:01:56;14.80;;;11.20;;
21000;SDS011;10658;50.920;12.238;2022-07-23T13:06:01;13.07;;;11.02;;
21000;SDS011;10658;50.920;12.238;2022-07-23T13:10:04;12.35;;;11.05;;
21000;SDS011;10658;50.920;12.238;2022-07-23T13:14:05;14.95;;;12.40;;
21000;SDS011;10658;50.920;12.238;2022-07-23T13:18:08;16.08;;;12.38;;
21000;SDS011;10658;50.920;12.238;2022-07-23T13:22:09;13.48;;;12.07;;
21000;SDS011;10658;50.920;12.238;2022-07-23T13:30:33;17.25;;;13.38;;
21000;SDS011;10658;50.920;12.238;2022-07-23T13:34:35;16.05;;;13.38;;
21000;SDS011;10658;50.920;12.238;2022-07-23T13:38:36;15.45;;;12.70;;
21000;SDS011;10658;50.920;12.238;2022-07-23T13:42:37;15.65;;;12.98;;
21000;SDS011;10658;50.920;12.238;2022-07-23T13:46:38;18.55;;;14.48;;
21000;SDS011;10658;50.920;12.238;2022-07-23T13:50:40;18.92;;;13.90;;
21000;SDS011;10658;50.920;12.238;2022-07-23T13:54:42;18.75;;;15.07;;
21000;SDS011;10658;50.920;12.238;2022-07-23T13:58:43;19.88;;;14.98;;
21000;SDS011;10658;50.920;12.238;2022-07-23T14:02:45;17.55;;;13.48;;
21000;SDS011;10658;50.920;12.238;2022-07-23T14:06:47;17.77;;;12.80;;
21000;SDS011;10658;50.920;12.238;2022-07-23T14:10:48;17.80;;;13.18;;
21000;SDS011;10658;50.920;12.238;2022-07-23T14:14:50;16.60;;;13.02;;
21000;SDS011;10658;50.920;12.238;2022-07-23T14:18:51;11.90;;;10.52;;
21000;SDS011;10658;50.920;12.238;2022-07-23T14:22:53;13.70;;;11.35;;
21000;SDS011;10658;50.920;12.238;2022-07-23T14:26:56;14.05;;;12.00;;
21000;SDS011;10658;50.920;12.238;2022-07-23T14:30:57;11.88;;;10.70;;
21000;SDS011;10658;50.920;12.238;2022-07-23T14:34:58;13.45;;;10.63;;
21000;SDS011;10658;50.920;12.238;2022-07-23T14:38:59;12.93;;;9.90;;
21000;SDS011;10658;50.920;12.238;2022-07-23T14:43:01;10.65;;;8.30;;
21000;SDS011;10658;50.920;12.238;2022-07-23T14:47:03;10.38;;;8.57;;
21000;SDS011;10658;50.920;12.238;2022-07-23T14:51:06;11.40;;;9.50;;
21000;SDS011;10658;50.920;12.238;2022-07-23T14:55:08;10.98;;;9.68;;
21000;SDS011;10658;50.920;12.238;2022-07-23T14:59:09;10.25;;;9.18;;
21000;SDS011;10658;50.920;12.238;2022-07-23T15:03:11;8.57;;;7.65;;
21000;SDS011;10658;50.920;12.238;2022-07-23T15:07:12;8.52;;;7.72;;
21000;SDS011;10658;50.920;12.238;2022-07-23T15:11:14;8.63;;;7.00;;
21000;SDS011;10658;50.920;12.238;2022-07-23T15:15:16;10.02;;;7.82;;
21000;SDS011;10658;50.920;12.238;2022-07-23T15:19:18;7.82;;;7.03;;
21000;SDS011;10658;50.920;12.238;2022-07-23T15:23:19;7.82;;;6.85;;
21000;SDS011;10658;50.920;12.238;2022-07-23T15:27:20;9.57;;;6.45;;
21000;SDS011;10658;50.920;12.238;2022-07-23T15:31:21;7.57;;;6.78;;
21000;SDS011;10658;50.920;12.238;2022-07-23T15:35:24;8.98;;;6.45;;
21000;SDS011;10658;50.920;12.238;2022-07-23T15:39:25;6.70;;;5.90;;
21000;SDS011;10658;50.920;12.238;2022-07-23T15:43:27;8.15;;;6.15;;
21000;SDS011;10658;50.920;12.238;2022-07-23T15:47:29;8.15;;;6.40;;
21000;SDS011;10658;50.920;12.238;2022-07-23T15:51:32;5.88;;;5.38;;
21000;SDS011;10658;50.920;12.238;2022-07-23T15:55:33;6.32;;;5.72;;
21000;SDS011;10658;50.920;12.238;2022-07-23T15:59:36;7.03;;;5.72;;
21000;SDS011;10658;50.920;12.238;2022-07-23T16:03:37;9.40;;;6.28;;
21000;SDS011;10658;50.920;12.238;2022-07-23T16:07:38;8.32;;;6.60;;
21000;SDS011;10658;50.920;12.238;2022-07-23T16:11:40;7.25;;;5.95;;
21000;SDS011;10658;50.920;12.238;2022-07-23T16:15:41;6.80;;;6.00;;
21000;SDS011;10658;50.920;12.238;2022-07-23T16:19:42;7.88;;;6.25;;
21000;SDS011;10658;50.920;12.238;2022-07-23T16:23:43;8.52;;;6.65;;
21000;SDS011;10658;50.920;12.238;2022-07-23T16:27:45;7.28;;;5.70;;
21000;SDS011;10658;50.920;12.238;2022-07-23T16:31:46;7.25;;;6.55;;
21000;SDS011;10658;50.920;12.238;2022-07-23T16:35:49;7.78;;;6.63;;
21000;SDS011;10658;50.920;12.238;2022-07-23T16:39:50;7.60;;;6.03;;
21000;SDS011;10658;50.920;12.238;2022-07-23T16:43:51;8.38;;;6.53;;
21000;SDS011;10658;50.920;12.238;2022-07-23T16:47:53;7.10;;;5.65;;
21000;SDS011;10658;50.920;12.238;2022-07-23T16:51:54;8.18;;;5.43;;
21000;SDS011;10658;50.920;12.238;2022-07-23T16:55:56;5.80;;;5.20;;
21000;SDS011;10658;50.920;12.238;2022-07-23T16:59:58;5.97;;;4.70;;
21000;SDS011;10658;50.920;12.238;2022-07-23T17:04:00;5.82;;;5.03;;
21000;SDS011;10658;50.920;12.238;2022-07-23T17:08:02;6.38;;;5.10;;
21000;SDS011;10658;50.920;12.238;2022-07-23T17:12:04;6.00;;;4.97;;
21000;SDS011;10658;50.920;12.238;2022-07-23T17:16:05;8.15;;;5.25;;
21000;SDS011;10658;50.920;12.238;2022-07-23T17:20:07;5.70;;;5.18;;
21000;SDS011;10658;50.920;12.238;2022-07-23T17:24:08;7.25;;;4.97;;
21000;SDS011;10658;50.920;12.238;2022-07-23T17:28:10;5.82;;;4.50;;
21000;SDS011;10658;50.920;12.238;2022-07-23T17:32:11;5.63;;;4.90;;
21000;SDS011;10658;50.920;12.238;2022-07-23T17:36:13;5.60;;;4.95;;
21000;SDS011;10658;50.920;12.238;2022-07-23T17:40:14;5.38;;;4.63;;
21000;SDS011;10658;50.920;12.238;2022-07-23T17:44:16;5.32;;;4.43;;
21000;SDS011;10658;50.920;12.238;2022-07-23T17:48:19;7.13;;;4.57;;
21000;SDS011;10658;50.920;12.238;2022-07-23T17:52:21;5.22;;;4.72;;
21000;SDS011;10658;50.920;12.238;2022-07-23T17:56:22;5.00;;;4.50;;
21000;SDS011;10658;50.920;12.238;2022-07-23T18:00:26;7.45;;;5.13;;
21000;SDS011;10658;50.920;12.238;2022-07-23T18:04:32;4.38;;;3.88;;
21000;SDS011;10658;50.920;12.238;2022-07-23T18:08:34;6.68;;;3.70;;
21000;SDS011;10658;50.920;12.238;2022-07-23T18:12:36;4.75;;;4.35;;
21000;SDS011;10658;50.920;12.238;2022-07-23T18:16:39;4.38;;;3.78;;
21000;SDS011;10658;50.920;12.238;2022-07-23T18:20:41;4.05;;;3.50;;
21000;SDS011;10658;50.920;12.238;2022-07-23T18:24:43;7.82;;;3.83;;
21000;SDS011;10658;50.920;12.238;2022-07-23T18:28:44;8.85;;;3.60;;
21000;SDS011;10658;50.920;12.238;2022-07-23T18:32:46;5.90;;;4.35;;
21000;SDS011;10658;50.920;12.238;2022-07-23T18:36:47;6.45;;;4.97;;
21000;SDS011;10658;50.920;12.238;2022-07-23T18:40:49;7.30;;;5.38;;
21000;SDS011;10658;50.920;12.238;2022-07-23T18:44:51;7.65;;;5.20;;
21000;SDS011;10658;50.920;12.238;2022-07-23T18:48:52;7.78;;;5.65;;
21000;SDS011;10658;50.920;12.238;2022-07-23T18:52:53;8.50;;;5.88;;
21000;SDS011;10658;50.920;12.238;2022-07-23T18:56:54;9.68;;;6.22;;
21000;SDS011;10658;50.920;12.238;2022-07-23T19:00:55;8.75;;;6.32;;
21000;SDS011;10658;50.920;12.238;2022-07-23T19:04:56;7.85;;;6.38;;
21000;SDS011;10658;50.920;12.238;2022-07-23T19:08:59;9.85;;;6.45;;
21000;SDS011;10658;50.920;12.238;2022-07-23T19:13:01;9.57;;;7.10;;
21000;SDS011;10658;50.920;12.238;2022-07-23T19:17:02;8.60;;;6.50;;
21000;SDS011;10658;50.920;12.238;2022-07-23T19:21:04;10.85;;;6.80;;
21000;SDS011;10658;50.920;12.238;2022-07-23T19:25:09;9.48;;;6.57;;
21000;SDS011;10658;50.920;12.238;2022-07-23T19:29:10;11.82;;;7.38;;
21000;SDS011;10658;50.920;12.238;2022-07-23T19:33:11;9.95;;;6.75;;
21000;SDS011;10658;50.920;12.238;2022-07-23T19:37:12;10.27;;;6.72;;
21000;SDS011;10658;50.920;12.238;2022-07-23T19:41:15;11.27;;;6.88;;
21000;SDS011;10658;50.920;12.238;2022-07-23T19:45:16;8.63;;;7.20;;
21000;SDS011;10658;50.920;12.238;2022-07-23T19:49:18;9.25;;;6.97;;
21000;SDS011;10658;50.920;12.238;2022-07-23T19:53:19;10.55;;;7.28;;
21000;SDS011;10658;50.920;12.238;2022-07-23T19:57:20;8.20;;;6.28;;
21000;SDS011;10658;50.920;12.238;2022-07-23T20:01:23;7.88;;;6.40;;
21000;SDS011;10658;50.920;12.238;2022-07-23T20:05:25;11.43;;;7.70;;
21000;SDS011;10658;50.920;12.238;2022-07-23T20:09:26;12.35;;;7.63;;
21000;SDS011;10658;50.920;12.238;2022-07-23T20:13:28;8.65;;;6.82;;
21000;SDS011;10658;50.920;12.238;2022-07-23T20:17:29;15.18;;;6.47;;
21000;SDS011;10658;50.920;12.238;2022-07-23T20:21:31;10.40;;;6.25;;
21000;SDS011;10658;50.920;12.238;2022-07-23T20:25:32;11.32;;;6.63;;
21000;SDS011;10658;50.920;12.238;2022-07-23T20:29:32;8.25;;;6.03;;
21000;SDS011;10658;50.920;12.238;2022-07-23T20:33:34;14.60;;;7.53;;
21000;SDS011;10658;50.920;12.238;2022-07-23T20:37:36;11.40;;;6.85;;
21000;SDS011;10658;50.920;12.238;2022-07-23T20:41:37;8.00;;;6.38;;
21000;SDS011;10658;50.920;12.238;2022-07-23T20:45:41;11.05;;;7.15;;
21000;SDS011;10658;50.920;12.238;2022-07-23T20:49:44;9.75;;;6.82;;
21000;SDS011;10658;50.920;12.238;2022-07-23T20:53:46;10.85;;;6.43;;
21000;SDS011;10658;50.920;12.238;2022-07-23T20:57:47;9.77;;;7.28;;
21000;SDS011;10658;50.920;12.238;2022-07-23T21:01:49;10.20;;;6.13;;
21000;SDS011;10658;50.920;12.238;2022-07-23T21:05:50;8.40;;;6.30;;
21000;SDS011;10658;50.920;12.238;2022-07-23T21:09:51;9.68;;;6.75;;
21000;SDS011;10658;50.920;12.238;2022-07-23T21:13:52;8.25;;;6.55;;
21000;SDS011;10658;50.920;12.238;2022-07-23T21:17:53;8.63;;;6.38;;
21000;SDS011;10658;50.920;12.238;2022-07-23T21:21:55;9.25;;;6.05;;
21000;SDS011;10658;50.920;12.238;2022-07-23T21:25:56;10.70;;;6.03;;
21000;SDS011;10658;50.920;12.238;2022-07-23T21:29:58;8.43;;;6.22;;
21000;SDS011;10658;50.920;12.238;2022-07-23T21:33:59;5.88;;;5.28;;
21000;SDS011;10658;50.920;12.238;2022-07-23T21:38:01;12.40;;;5.72;;
21000;SDS011;10658;50.920;12.238;2022-07-23T21:42:02;7.65;;;5.72;;
21000;SDS011;10658;50.920;12.238;2022-07-23T21:46:03;8.88;;;5.28;;
21000;SDS011;10658;50.920;12.238;2022-07-23T21:50:05;8.02;;;5.45;;
21000;SDS011;10658;50.920;12.238;2022-07-23T21:54:09;6.60;;;4.93;;
21000;SDS011;10658;50.920;12.238;2022-07-23T21:58:10;7.10;;;5.15;;
21000;SDS011;10658;50.920;12.238;2022-07-23T22:02:11;5.22;;;4.72;;
21000;SDS011;10658;50.920;12.238;2022-07-23T22:06:12;5.55;;;4.43;;
21000;SDS011;10658;50.920;12.238;2022-07-23T22:10:14;7.40;;;5.53;;
21000;SDS011;10658;50.920;12.238;2022-07-23T22:14:15;5.10;;;4.55;;
21000;SDS011;10658;50.920;12.238;2022-07-23T22:18:16;7.35;;;5.20;;
21000;SDS011;10658;50.920;12.238;2022-07-23T22:22:17;7.93;;;5.80;;
21000;SDS011;10658;50.920;12.238;2022-07-23T22:26:19;6.82;;;5.30;;
21000;SDS011;10658;50.920;12.238;2022-07-23T22:30:20;6.72;;;4.85;;
21000;SDS011;10658;50.920;12.238;2022-07-23T22:34:21;5.45;;;4.65;;
21000;SDS011;10658;50.920;12.238;2022-07-23T22:38:24;4.75;;;4.20;;
21000;SDS011;10658;50.920;12.238;2022-07-23T22:42:25;5.05;;;4.55;;
21000;SDS011;10658;50.920;12.238;2022-07-23T22:46:26;7.80;;;5.05;;
21000;SDS011;10658;50.920;12.238;2022-07-23T22:50:28;6.38;;;4.32;;
21000;SDS011;10658;50.920;12.238;2022-07-23T22:54:29;7.75;;;5.47;;
21000;SDS011;10658;50.920;12.238;2022-07-23T22:58:31;6.75;;;5.32;;
21000;SDS011;10658;50.920;12.238;2022-07-23T23:02:32;6.90;;;4.15;;
21000;SDS011;10658;50.920;12.238;2022-07-23T23:06:33;4.85;;;3.92;;
21000;SDS011;10658;50.920;12.238;2022-07-23T23:10:34;6.07;;;4.47;;
21000;SDS011;10658;50.920;12.238;2022-07-23T23:14:35;5.25;;;4.70;;
21000;SDS011;10658;50.920;12.238;2022-07-23T23:18:36;5.70;;;4.70;;
21000;SDS011;10658;50.920;12.238;2022-07-23T23:22:38;5.38;;;4.13;;
21000;SDS011;10658;50.920;12.238;2022-07-23T23:26:39;5.80;;;4.03;;
21000;SDS011;10658;50.920;12.238;2022-07-23T23:30:41;6.35;;;4.25;;
21000;SDS011;10658;50.920;12.238;2022-07-23T23:34:46;4.95;;;4.25;;
21000;SDS011;10658;50.920;12.238;2022-07-23T23:38:47;4.35;;;3.80;;
21000;SDS011;10658;50.920;12.238;2022-07-23T23:42:48;5.07;;;4.32;;
21000;SDS011;10658;50.920;12.238;2022-07-23T23:46:49;6.22;;;4.72;;
21000;SDS011;10658;50.920;12.238;2022-07-23T23:50:51;5.68;;;4.20;;
21000;SDS011;10658;50.920;12.238;2022-07-23T23:54:52;4.63;;;4.15;;
21000;SDS011;10658;50.920;12.238;2022-07-23T23:58:53;3.97;;;3.65;;
